createdAt,value
2022-11-11T00:00:50.444Z,18.92
2022-11-11T00:03:35.947Z,17.42
2022-11-11T00:06:21.278Z,18.00
2022-11-11T00:09:06.786Z,18.08
2022-11-11T00:11:52.629Z,18.15
2022-11-11T00:14:37.915Z,18.80
2022-11-11T00:17:41.982Z,17.73
2022-11-11T00:20:46.048Z,18.02
2022-11-11T00:23:50.391Z,18.88
2022-11-11T00:26:40.388Z,18.45
2022-11-11T00:29:26.287Z,20.67
2022-11-11T00:32:23.631Z,17.85
2022-11-11T00:35:28.486Z,18.92
2022-11-11T00:38:33.805Z,17.95
2022-11-11T00:41:21.204Z,18.20
2022-11-11T00:44:06.845Z,18.63
2022-11-11T00:47:10.865Z,18.33
2022-11-11T00:50:15.000Z,19.02
2022-11-11T00:53:01.021Z,19.23
2022-11-11T00:55:46.350Z,18.20
2022-11-11T00:58:31.611Z,18.25
2022-11-11T01:01:17.498Z,18.25
2022-11-11T01:04:03.495Z,19.02
2022-11-11T01:06:49.338Z,18.50
2022-11-11T01:09:34.603Z,18.13
2022-11-11T01:12:20.199Z,18.33
2022-11-11T01:15:06.347Z,18.90
2022-11-11T01:17:51.868Z,18.95
2022-11-11T01:20:38.495Z,18.33
2022-11-11T01:23:24.012Z,19.00
2022-11-11T01:26:31.637Z,17.95
2022-11-11T01:29:17.230Z,18.55
2022-11-11T01:32:02.619Z,18.20
2022-11-11T01:34:47.994Z,18.70
2022-11-11T01:37:39.167Z,18.23
2022-11-11T01:40:24.847Z,18.92
2022-11-11T01:43:13.008Z,18.20
2022-11-11T01:46:00.925Z,18.67
2022-11-11T01:49:08.191Z,17.80
2022-11-11T01:52:02.793Z,18.20
2022-11-11T01:55:08.027Z,18.70
2022-11-11T01:58:15.724Z,18.20
2022-11-11T02:01:02.679Z,18.38
2022-11-11T02:04:08.818Z,18.73
2022-11-11T02:06:58.056Z,21.67
2022-11-11T02:09:47.083Z,18.67
2022-11-11T02:12:51.415Z,18.25
2022-11-11T02:15:38.434Z,20.23
2022-11-11T02:18:24.365Z,18.73
2022-11-11T02:21:20.638Z,18.40
2022-11-11T02:24:10.152Z,18.02
2022-11-11T02:26:58.675Z,18.55
2022-11-11T02:29:48.438Z,18.38
2022-11-11T02:32:34.291Z,18.38
2022-11-11T02:35:26.024Z,18.67
2022-11-11T02:38:12.388Z,17.65
2022-11-11T02:41:16.416Z,18.45
2022-11-11T02:44:02.198Z,20.63
2022-11-11T02:46:47.328Z,18.67
2022-11-11T02:49:32.839Z,18.35
2022-11-11T02:52:17.973Z,17.88
2022-11-11T02:55:04.300Z,17.98
2022-11-11T02:57:50.170Z,18.63
2022-11-11T03:00:35.208Z,17.75
2022-11-11T03:03:20.800Z,17.80
2022-11-11T03:06:06.396Z,17.85
2022-11-11T03:08:52.029Z,18.38
2022-11-11T03:11:38.578Z,17.58
2022-11-11T03:14:24.640Z,17.83
2022-11-11T03:17:29.361Z,18.20
2022-11-11T03:20:37.196Z,17.98
2022-11-11T03:23:22.863Z,17.85
2022-11-11T03:26:09.175Z,18.50
2022-11-11T03:28:54.847Z,18.38
2022-11-11T03:31:40.381Z,19.52
2022-11-11T03:34:25.719Z,17.90
2022-11-11T03:37:31.062Z,17.35
2022-11-11T03:40:16.269Z,17.33
2022-11-11T03:43:04.964Z,17.15
2022-11-11T03:45:54.849Z,17.20
2022-11-11T03:48:40.260Z,17.73
2022-11-11T03:51:25.632Z,17.73
2022-11-11T03:54:10.904Z,18.02
2022-11-11T03:57:18.978Z,17.33
2022-11-11T04:00:12.249Z,17.40
2022-11-11T04:03:25.803Z,16.23
2022-11-11T04:06:30.110Z,18.23
2022-11-11T04:09:34.346Z,18.13
2022-11-11T04:12:19.974Z,17.70
2022-11-11T04:15:23.910Z,18.38
2022-11-11T04:18:09.519Z,17.90
2022-11-11T04:21:23.740Z,18.02
2022-11-11T04:24:43.377Z,17.77
2022-11-11T04:27:28.497Z,18.90
2022-11-11T04:30:13.686Z,18.23
2022-11-11T04:32:58.996Z,17.45
2022-11-11T04:35:49.435Z,17.65
2022-11-11T04:38:53.456Z,17.87
2022-11-11T04:42:01.752Z,18.38
2022-11-11T04:45:02.830Z,18.50
2022-11-11T04:48:10.856Z,18.30
2022-11-11T04:50:57.206Z,18.05
2022-11-11T04:53:42.537Z,18.27
2022-11-11T04:56:46.447Z,18.13
2022-11-11T04:59:31.968Z,18.05
2022-11-11T05:02:36.030Z,17.83
2022-11-11T05:05:23.148Z,18.10
2022-11-11T05:08:27.292Z,18.25
2022-11-11T05:11:12.782Z,19.48
2022-11-11T05:14:18.879Z,18.73
2022-11-11T05:17:23.255Z,19.00
2022-11-11T05:20:28.463Z,18.90
2022-11-11T05:23:13.590Z,17.73
2022-11-11T05:25:59.017Z,18.33
2022-11-11T05:28:44.475Z,18.52
2022-11-11T05:31:30.418Z,18.00
2022-11-11T05:34:15.663Z,17.95
2022-11-11T05:37:01.242Z,18.40
2022-11-11T05:39:46.783Z,17.77
2022-11-11T05:42:32.173Z,18.00
2022-11-11T05:45:17.846Z,17.55
2022-11-11T05:48:03.710Z,17.30
2022-11-11T05:50:48.895Z,16.65
2022-11-11T05:53:34.535Z,17.50
2022-11-11T05:56:20.079Z,16.65
2022-11-11T05:59:06.597Z,17.10
2022-11-11T06:01:52.134Z,16.95
2022-11-11T06:04:37.765Z,16.33
2022-11-11T06:07:23.191Z,17.10
2022-11-11T06:10:28.179Z,16.63
2022-11-11T06:13:15.104Z,15.98
2022-11-11T06:16:01.092Z,18.73
2022-11-11T06:18:46.937Z,18.63
2022-11-11T06:21:52.717Z,17.75
2022-11-11T06:24:38.108Z,18.08
2022-11-11T06:27:23.374Z,18.70
2022-11-11T06:30:38.203Z,17.35
2022-11-11T06:33:14.537Z,18.15
2022-11-11T06:35:59.973Z,17.08
2022-11-11T06:38:45.659Z,16.48
2022-11-11T06:41:31.394Z,17.73
2022-11-11T06:44:16.870Z,18.50
2022-11-11T06:47:02.216Z,19.13
2022-11-11T06:49:47.528Z,18.60
2022-11-11T06:52:33.361Z,19.25
2022-11-11T06:55:19.168Z,18.27
2022-11-11T06:58:16.418Z,19.30
2022-11-11T07:01:05.096Z,18.08
2022-11-11T07:03:50.374Z,18.95
2022-11-11T07:06:35.900Z,18.75
2022-11-11T07:09:23.495Z,18.80
2022-11-11T07:12:09.200Z,18.55
2022-11-11T07:14:54.810Z,18.35
2022-11-11T07:17:40.129Z,18.13
2022-11-11T07:20:25.453Z,17.95
2022-11-11T07:23:10.864Z,18.20
2022-11-11T07:25:56.226Z,18.48
2022-11-11T07:28:42.350Z,17.83
2022-11-11T07:31:28.027Z,17.63
2022-11-11T07:34:13.504Z,17.35
2022-11-11T07:36:59.150Z,17.08
2022-11-11T07:39:44.676Z,17.80
2022-11-11T07:42:31.863Z,17.52
2022-11-11T07:45:17.569Z,17.10
2022-11-11T07:48:03.183Z,18.02
2022-11-11T07:50:48.482Z,16.48
2022-11-11T07:53:33.756Z,15.80
2022-11-11T07:56:19.076Z,17.27
2022-11-11T07:59:04.539Z,17.73
2022-11-11T08:01:50.045Z,17.15
2022-11-11T08:04:35.450Z,17.23
2022-11-11T08:07:23.285Z,16.05
2022-11-11T08:10:10.013Z,17.30
2022-11-11T08:13:13.880Z,16.50
2022-11-11T08:15:59.019Z,16.33
2022-11-11T08:18:44.398Z,16.10
2022-11-11T08:21:29.834Z,16.80
2022-11-11T08:25:01.679Z,17.85
2022-11-11T08:27:21.849Z,18.50
2022-11-11T08:30:09.391Z,17.70
2022-11-11T08:33:32.258Z,17.17
2022-11-11T08:36:20.990Z,16.77
2022-11-11T08:39:07.537Z,17.70
2022-11-11T08:41:53.623Z,16.98
2022-11-11T08:44:39.176Z,17.15
2022-11-11T08:47:25.104Z,17.67
2022-11-11T08:50:11.100Z,17.80
2022-11-11T08:52:57.250Z,17.10
2022-11-11T08:55:42.658Z,16.95
2022-11-11T08:58:28.003Z,17.08
2022-11-11T09:01:14.821Z,17.05
2022-11-11T09:04:16.707Z,16.92
2022-11-11T09:07:07.087Z,16.70
2022-11-11T09:09:52.750Z,16.30
2022-11-11T09:12:38.146Z,16.80
2022-11-11T09:15:24.196Z,16.88
2022-11-11T09:18:10.661Z,16.77
2022-11-11T09:20:58.485Z,17.58
2022-11-11T09:23:43.794Z,18.02
2022-11-11T09:26:29.100Z,17.38
2022-11-11T09:29:14.505Z,16.73
2022-11-11T09:31:59.887Z,16.48
2022-11-11T09:34:45.277Z,17.35
2022-11-11T09:37:30.687Z,16.73
2022-11-11T09:40:21.285Z,16.45
2022-11-11T09:43:18.873Z,16.67
2022-11-11T09:46:22.507Z,16.40
2022-11-11T09:49:20.698Z,16.15
2022-11-11T09:52:18.205Z,15.63
2022-11-11T09:55:12.614Z,15.15
2022-11-11T09:58:20.745Z,15.50
2022-11-11T10:01:15.115Z,15.93
2022-11-11T10:04:06.831Z,16.42
2022-11-11T10:07:00.996Z,15.98
2022-11-11T10:10:00.589Z,16.17
2022-11-11T10:12:53.120Z,15.98
2022-11-11T10:16:05.112Z,15.43
2022-11-11T10:19:15.990Z,15.90
2022-11-11T10:22:19.965Z,16.00
2022-11-11T10:25:08.957Z,15.95
2022-11-11T10:27:59.213Z,15.07
2022-11-11T10:30:46.552Z,16.23
2022-11-11T10:33:46.639Z,15.65
2022-11-11T10:36:37.004Z,15.52
2022-11-11T10:39:32.095Z,16.67
2022-11-11T10:42:18.561Z,16.30
2022-11-11T10:45:30.333Z,15.88
2022-11-11T10:48:21.612Z,15.73
2022-11-11T10:51:07.828Z,16.48
2022-11-11T10:54:09.341Z,15.13
2022-11-11T10:57:24.879Z,15.98
2022-11-11T11:00:12.948Z,15.90
2022-11-11T11:03:13.126Z,15.55
2022-11-11T11:06:02.633Z,15.63
2022-11-11T11:08:54.533Z,15.38
2022-11-11T11:11:52.699Z,15.48
2022-11-11T11:14:43.856Z,15.05
2022-11-11T11:17:36.584Z,16.13
2022-11-11T11:20:22.357Z,14.80
2022-11-11T11:23:07.976Z,14.50
2022-11-11T11:25:55.533Z,14.30
2022-11-11T11:29:10.198Z,13.65
2022-11-11T11:31:56.314Z,14.25
2022-11-11T11:34:49.712Z,14.02
2022-11-11T11:37:50.415Z,14.73
2022-11-11T11:40:56.382Z,14.80
2022-11-11T11:43:46.060Z,14.68
2022-11-11T11:46:40.956Z,14.10
2022-11-11T11:49:38.378Z,14.43
2022-11-11T11:52:47.224Z,14.45
2022-11-11T11:55:44.102Z,14.93
2022-11-11T11:58:39.832Z,15.43
2022-11-11T12:01:57.031Z,15.02
2022-11-11T12:04:55.292Z,15.25
2022-11-11T12:08:02.570Z,15.35
2022-11-11T12:11:15.881Z,14.63
2022-11-11T12:14:22.943Z,15.38
2022-11-11T12:17:44.231Z,13.90
2022-11-11T12:21:04.404Z,13.68
2022-11-11T12:23:55.672Z,13.52
2022-11-11T12:26:47.141Z,13.75
2022-11-11T12:30:02.559Z,13.68
2022-11-11T12:33:10.164Z,13.48
2022-11-11T12:36:07.885Z,12.90
2022-11-11T12:39:46.061Z,14.18
2022-11-11T12:42:53.661Z,14.73
2022-11-11T12:45:57.208Z,14.20
2022-11-11T12:48:53.504Z,13.85
2022-11-11T12:52:08.714Z,14.57
2022-11-11T12:55:26.815Z,14.82
2022-11-11T12:58:29.716Z,14.93
2022-11-11T13:01:33.336Z,14.55
2022-11-11T13:04:45.117Z,14.18
2022-11-11T13:07:55.431Z,14.13
2022-11-11T13:10:52.398Z,14.20
2022-11-11T13:13:53.315Z,14.13
2022-11-11T13:19:33.682Z,14.23
2022-11-11T13:22:28.320Z,14.30
2022-11-11T13:25:26.368Z,14.70
2022-11-11T13:28:20.849Z,14.95
2022-11-11T13:31:09.175Z,14.82
2022-11-11T13:33:58.506Z,15.43
2022-11-11T13:36:49.029Z,14.95
2022-11-11T13:39:40.087Z,15.27
2022-11-11T13:42:31.690Z,14.80
2022-11-11T13:45:28.155Z,14.82
2022-11-11T13:48:25.021Z,15.10
2022-11-11T13:51:24.995Z,14.68
2022-11-11T13:54:33.175Z,14.02
2022-11-11T13:57:22.530Z,14.23
2022-11-11T14:00:26.614Z,14.82
2022-11-11T14:03:20.469Z,15.23
2022-11-11T14:06:15.613Z,14.90
2022-11-11T14:09:02.116Z,14.73
2022-11-11T14:11:48.310Z,15.20
2022-11-11T14:14:37.776Z,14.98
2022-11-11T14:17:51.319Z,14.88
2022-11-11T14:20:42.722Z,15.38
2022-11-11T14:23:37.326Z,15.13
2022-11-11T14:26:27.847Z,15.20
2022-11-11T14:29:20.832Z,14.50
2022-11-11T14:32:31.555Z,14.75
2022-11-11T14:35:38.623Z,15.48
2022-11-11T14:38:45.866Z,14.95
2022-11-11T14:41:52.047Z,14.75
2022-11-11T14:44:38.140Z,14.98
2022-11-11T14:47:41.518Z,14.50
2022-11-11T14:50:33.866Z,14.43
2022-11-11T14:53:25.981Z,14.43
2022-11-11T14:56:18.601Z,14.35
2022-11-11T14:59:10.393Z,14.20
2022-11-11T15:01:59.437Z,14.10
2022-11-11T15:04:45.529Z,14.05
2022-11-11T15:07:59.769Z,16.00
2022-11-11T15:11:08.273Z,14.38
2022-11-11T15:14:00.783Z,13.73
2022-11-11T15:17:24.592Z,12.93
2022-11-11T15:20:46.989Z,12.82
2022-11-11T15:23:38.100Z,13.75
2022-11-11T15:26:36.551Z,13.07
2022-11-11T15:29:40.827Z,13.20
2022-11-11T15:32:46.598Z,13.85
2022-11-11T15:35:40.620Z,13.68
2022-11-11T15:38:26.903Z,13.55
2022-11-11T15:41:24.612Z,13.20
2022-11-11T15:44:19.609Z,13.07
2022-11-11T15:47:07.186Z,12.45
2022-11-11T15:49:53.158Z,12.90
2022-11-11T15:52:39.134Z,13.35
2022-11-11T15:55:25.638Z,13.02
2022-11-11T15:58:30.981Z,12.27
2022-11-11T16:01:16.909Z,12.65
2022-11-11T16:04:22.591Z,12.88
2022-11-11T16:07:30.083Z,13.40
2022-11-11T16:10:26.873Z,13.57
2022-11-11T16:13:20.532Z,13.38
2022-11-11T16:16:23.364Z,13.40
2022-11-11T16:19:34.864Z,13.80
2022-11-11T16:22:32.965Z,13.07
2022-11-11T16:25:22.682Z,13.00
2022-11-11T16:28:12.172Z,13.70
2022-11-11T16:30:58.877Z,13.40
2022-11-11T16:33:46.543Z,13.70
2022-11-11T16:36:31.869Z,13.63
2022-11-11T16:39:21.472Z,13.90
2022-11-11T16:42:22.009Z,13.40
2022-11-11T16:45:20.604Z,13.48
2022-11-11T16:48:06.106Z,13.13
2022-11-11T16:51:05.041Z,13.07
2022-11-11T16:54:07.499Z,12.70
2022-11-11T16:56:57.359Z,13.18
2022-11-11T16:59:48.158Z,13.75
2022-11-11T17:02:34.750Z,12.90
2022-11-11T17:05:40.060Z,13.50
2022-11-11T17:08:40.577Z,13.73
2022-11-11T17:11:45.995Z,13.18
2022-11-11T17:14:36.953Z,13.18
2022-11-11T17:17:22.542Z,12.98
2022-11-11T17:20:12.595Z,13.35
2022-11-11T17:22:58.874Z,13.32
2022-11-11T17:25:44.989Z,12.93
2022-11-11T17:28:32.263Z,14.15
2022-11-11T17:31:17.409Z,14.07
2022-11-11T17:34:07.623Z,13.93
2022-11-11T17:36:53.119Z,13.48
2022-11-11T17:39:43.292Z,13.30
2022-11-11T17:42:32.768Z,12.80
2022-11-11T17:45:19.939Z,13.00
2022-11-11T17:48:08.257Z,13.30
2022-11-11T17:50:56.112Z,13.02
2022-11-11T17:53:53.216Z,13.52
2022-11-11T17:56:41.920Z,13.52
2022-11-11T17:59:27.830Z,12.52
2022-11-11T18:02:14.317Z,12.93
2022-11-11T18:05:02.068Z,13.13
2022-11-11T18:07:48.607Z,12.80
2022-11-11T18:10:34.225Z,13.50
2022-11-11T18:13:19.964Z,14.43
2022-11-11T18:16:07.294Z,14.05
2022-11-11T18:18:54.837Z,13.88
2022-11-11T18:21:42.747Z,13.68
2022-11-11T18:24:31.358Z,13.00
2022-11-11T18:27:17.523Z,13.15
2022-11-11T18:30:03.771Z,13.20
2022-11-11T18:32:50.901Z,13.50
2022-11-11T18:35:36.664Z,13.30
2022-11-11T18:38:22.747Z,13.60
2022-11-11T18:41:17.163Z,12.65
2022-11-11T18:44:03.592Z,13.98
2022-11-11T18:46:49.856Z,12.75
2022-11-11T18:49:36.164Z,13.63
2022-11-11T18:52:22.541Z,13.35
2022-11-11T18:55:09.329Z,13.40
2022-11-11T18:57:55.455Z,12.20
2022-11-11T19:00:41.581Z,10.50
2022-11-11T19:03:27.631Z,11.50
2022-11-11T19:06:13.758Z,13.43
2022-11-11T19:09:02.395Z,13.00
2022-11-11T19:11:47.901Z,13.45
2022-11-11T19:14:33.308Z,13.40
2022-11-11T19:17:18.598Z,13.40
2022-11-11T19:20:06.056Z,13.02
2022-11-11T19:22:51.364Z,13.07
2022-11-11T19:25:37.247Z,13.95
2022-11-11T19:28:22.666Z,13.07
2022-11-11T19:31:13.247Z,14.20
2022-11-11T19:33:59.087Z,13.52
2022-11-11T19:36:44.581Z,13.80
2022-11-11T19:39:29.999Z,13.68
2022-11-11T19:42:16.104Z,13.90
2022-11-11T19:45:02.752Z,13.50
2022-11-11T19:47:49.909Z,15.20
2022-11-11T19:50:35.290Z,14.00
2022-11-11T19:53:20.830Z,14.32
2022-11-11T19:56:15.197Z,14.15
2022-11-11T19:59:03.349Z,14.02
2022-11-11T20:01:48.904Z,14.43
2022-11-11T20:04:34.363Z,13.98
2022-11-11T20:07:19.739Z,14.20
2022-11-11T20:10:06.237Z,14.90
2022-11-11T20:12:52.985Z,13.27
2022-11-11T20:15:38.424Z,13.77
2022-11-11T20:18:23.929Z,13.40
2022-11-11T20:21:09.475Z,12.45
2022-11-11T20:23:55.630Z,14.73
2022-11-11T20:26:41.277Z,13.82
2022-11-11T20:29:27.178Z,13.30
2022-11-11T20:32:12.221Z,13.05
2022-11-11T20:34:57.923Z,12.90
2022-11-11T20:37:43.623Z,13.10
2022-11-11T20:40:28.978Z,13.63
2022-11-11T20:43:14.455Z,13.50
2022-11-11T20:46:03.163Z,13.25
2022-11-11T20:48:50.714Z,12.98
2022-11-11T20:51:36.267Z,13.18
2022-11-11T20:54:22.025Z,13.60
2022-11-11T20:57:07.372Z,12.95
2022-11-11T20:59:52.914Z,13.52
2022-11-11T21:02:38.195Z,13.63
2022-11-11T21:05:23.838Z,13.60
2022-11-11T21:08:09.316Z,13.50
2022-11-11T21:10:56.162Z,13.60
2022-11-11T21:13:45.832Z,13.77
2022-11-11T21:16:32.449Z,13.20
2022-11-11T21:19:18.082Z,13.70
2022-11-11T21:22:08.910Z,13.63
2022-11-11T21:24:55.974Z,13.23
2022-11-11T21:27:41.524Z,12.95
2022-11-11T21:30:26.862Z,13.38
2022-11-11T21:33:12.291Z,13.30
2022-11-11T21:36:22.226Z,12.60
2022-11-11T21:39:09.861Z,14.20
2022-11-11T21:41:55.114Z,12.88
2022-11-11T21:44:41.102Z,14.10
2022-11-11T21:47:26.580Z,14.57
2022-11-11T21:50:12.131Z,14.93
2022-11-11T21:52:57.878Z,16.27
2022-11-11T21:55:43.195Z,14.45
2022-11-11T21:58:29.279Z,14.95
2022-11-11T22:01:19.603Z,14.93
2022-11-11T22:04:08.025Z,14.00
2022-11-11T22:06:53.328Z,14.70
2022-11-11T22:09:39.229Z,14.95
2022-11-11T22:12:25.750Z,14.77
2022-11-11T22:15:11.081Z,14.32
2022-11-11T22:17:56.533Z,14.07
2022-11-11T22:20:41.794Z,13.60
2022-11-11T22:23:27.268Z,13.60
2022-11-11T22:26:12.738Z,13.45
2022-11-11T22:28:58.627Z,13.23
2022-11-11T22:31:44.888Z,13.10
2022-11-11T22:34:30.969Z,13.48
2022-11-11T22:37:19.218Z,12.95
2022-11-11T22:40:05.214Z,13.60
2022-11-11T22:42:50.498Z,13.85
2022-11-11T22:45:35.950Z,13.50
2022-11-11T22:48:21.771Z,13.98
2022-11-11T22:51:14.078Z,14.07
2022-11-11T22:54:05.099Z,14.32
2022-11-11T22:56:50.681Z,13.70
2022-11-11T22:59:36.239Z,14.00
2022-11-11T23:02:21.678Z,13.40
2022-11-11T23:05:07.297Z,12.90
2022-11-11T23:07:54.117Z,13.07
2022-11-11T23:10:39.691Z,13.95
2022-11-11T23:13:25.066Z,12.68
2022-11-11T23:16:13.145Z,13.38
2022-11-11T23:19:00.574Z,13.05
2022-11-11T23:21:46.921Z,13.40
2022-11-11T23:24:32.235Z,13.15
2022-11-11T23:27:17.832Z,13.25
2022-11-11T23:30:04.019Z,13.00
2022-11-11T23:32:53.113Z,13.57
2022-11-11T23:35:39.379Z,13.15
2022-11-11T23:38:24.977Z,13.05
2022-11-11T23:41:11.608Z,13.45
2022-11-11T23:43:58.439Z,13.00
2022-11-11T23:46:44.962Z,13.50
2022-11-11T23:49:30.703Z,12.80
2022-11-11T23:52:16.496Z,13.05
2022-11-11T23:55:02.528Z,13.98
2022-11-11T23:57:48.262Z,13.05
